sensor_id;sensor_type;location;lat;lon;timestamp;temperature;humidity
25438;DHT22;13364;49.084;9.978;2022-07-23T00:01:13;23.40;98.60
25438;DHT22;13364;49.084;9.978;2022-07-23T00:03:50;23.40;98.60
25438;DHT22;13364;49.084;9.978;2022-07-23T00:06:21;23.30;98.70
25438;DHT22;13364;49.084;9.978;2022-07-23T00:08:49;23.30;99.20
25438;DHT22;13364;49.084;9.978;2022-07-23T00:11:16;23.20;99.40
25438;DHT22;13364;49.084;9.978;2022-07-23T00:13:43;23.20;99.80
25438;DHT22;13364;49.084;9.978;2022-07-23T00:16:11;23.20;99.90
25438;DHT22;13364;49.084;9.978;2022-07-23T00:18:38;23.10;99.90
25438;DHT22;13364;49.084;9.978;2022-07-23T00:21:05;23.10;99.30
25438;DHT22;13364;49.084;9.978;2022-07-23T00:23:33;23.10;98.60
25438;DHT22;13364;49.084;9.978;2022-07-23T00:26:00;23.10;98.40
25438;DHT22;13364;49.084;9.978;2022-07-23T00:28:27;23.20;98.20
25438;DHT22;13364;49.084;9.978;2022-07-23T00:30:54;23.30;97.60
25438;DHT22;13364;49.084;9.978;2022-07-23T00:33:21;23.30;97.20
25438;DHT22;13364;49.084;9.978;2022-07-23T00:35:48;23.40;96.90
25438;DHT22;13364;49.084;9.978;2022-07-23T00:38:15;23.40;96.30
25438;DHT22;13364;49.084;9.978;2022-07-23T00:40:42;23.40;96.10
25438;DHT22;13364;49.084;9.978;2022-07-23T00:43:10;23.40;96.30
25438;DHT22;13364;49.084;9.978;2022-07-23T00:45:37;23.40;95.90
25438;DHT22;13364;49.084;9.978;2022-07-23T00:48:05;23.40;95.50
25438;DHT22;13364;49.084;9.978;2022-07-23T00:50:32;23.40;95.80
25438;DHT22;13364;49.084;9.978;2022-07-23T00:52:59;23.40;95.70
25438;DHT22;13364;49.084;9.978;2022-07-23T00:55:27;23.30;95.40
25438;DHT22;13364;49.084;9.978;2022-07-23T00:57:55;23.30;95.10
25438;DHT22;13364;49.084;9.978;2022-07-23T01:00:24;23.30;94.90
25438;DHT22;13364;49.084;9.978;2022-07-23T01:02:51;23.30;94.70
25438;DHT22;13364;49.084;9.978;2022-07-23T01:05:19;23.30;94.60
25438;DHT22;13364;49.084;9.978;2022-07-23T01:07:50;23.30;94.40
25438;DHT22;13364;49.084;9.978;2022-07-23T01:10:22;23.30;94.20
25438;DHT22;13364;49.084;9.978;2022-07-23T01:13:03;23.30;94.00
25438;DHT22;13364;49.084;9.978;2022-07-23T01:15:31;23.30;94.10
25438;DHT22;13364;49.084;9.978;2022-07-23T01:17:58;23.30;93.90
25438;DHT22;13364;49.084;9.978;2022-07-23T01:20:26;23.30;93.70
25438;DHT22;13364;49.084;9.978;2022-07-23T01:22:54;23.30;93.60
25438;DHT22;13364;49.084;9.978;2022-07-23T01:25:22;23.30;93.50
25438;DHT22;13364;49.084;9.978;2022-07-23T01:28:03;23.30;93.40
25438;DHT22;13364;49.084;9.978;2022-07-23T01:30:32;23.30;93.40
25438;DHT22;13364;49.084;9.978;2022-07-23T01:33:01;23.30;93.40
25438;DHT22;13364;49.084;9.978;2022-07-23T01:35:29;23.30;93.10
25438;DHT22;13364;49.084;9.978;2022-07-23T01:38:00;23.30;93.00
25438;DHT22;13364;49.084;9.978;2022-07-23T01:40:28;23.30;93.00
25438;DHT22;13364;49.084;9.978;2022-07-23T01:42:56;23.20;93.50
25438;DHT22;13364;49.084;9.978;2022-07-23T01:45:23;23.30;92.90
25438;DHT22;13364;49.084;9.978;2022-07-23T01:48:05;23.30;93.00
25438;DHT22;13364;49.084;9.978;2022-07-23T01:50:39;23.20;93.10
25438;DHT22;13364;49.084;9.978;2022-07-23T01:53:20;23.10;93.00
25438;DHT22;13364;49.084;9.978;2022-07-23T01:55:48;23.10;93.40
25438;DHT22;13364;49.084;9.978;2022-07-23T01:58:15;23.00;93.80
25438;DHT22;13364;49.084;9.978;2022-07-23T02:00:42;23.00;93.60
25438;DHT22;13364;49.084;9.978;2022-07-23T02:03:09;22.90;93.50
25438;DHT22;13364;49.084;9.978;2022-07-23T02:05:36;22.90;93.90
25438;DHT22;13364;49.084;9.978;2022-07-23T02:08:04;22.90;93.80
25438;DHT22;13364;49.084;9.978;2022-07-23T02:10:34;22.80;94.10
25438;DHT22;13364;49.084;9.978;2022-07-23T02:13:03;22.80;94.10
25438;DHT22;13364;49.084;9.978;2022-07-23T02:15:30;22.80;94.40
25438;DHT22;13364;49.084;9.978;2022-07-23T02:17:58;22.80;94.50
25438;DHT22;13364;49.084;9.978;2022-07-23T02:20:25;22.70;94.60
25438;DHT22;13364;49.084;9.978;2022-07-23T02:22:52;22.70;95.70
25438;DHT22;13364;49.084;9.978;2022-07-23T02:25:19;22.60;95.50
25438;DHT22;13364;49.084;9.978;2022-07-23T02:27:46;22.60;96.60
25438;DHT22;13364;49.084;9.978;2022-07-23T02:30:13;22.60;96.10
25438;DHT22;13364;49.084;9.978;2022-07-23T02:32:41;22.50;96.60
25438;DHT22;13364;49.084;9.978;2022-07-23T02:35:09;22.40;96.60
25438;DHT22;13364;49.084;9.978;2022-07-23T02:37:37;22.40;96.80
25438;DHT22;13364;49.084;9.978;2022-07-23T02:40:04;22.40;97.30
25438;DHT22;13364;49.084;9.978;2022-07-23T02:42:34;22.40;99.50
25438;DHT22;13364;49.084;9.978;2022-07-23T02:45:03;22.30;99.00
25438;DHT22;13364;49.084;9.978;2022-07-23T02:47:30;22.20;98.40
25438;DHT22;13364;49.084;9.978;2022-07-23T02:50:00;22.20;98.50
25438;DHT22;13364;49.084;9.978;2022-07-23T02:52:28;22.20;98.80
25438;DHT22;13364;49.084;9.978;2022-07-23T02:54:56;22.10;99.20
25438;DHT22;13364;49.084;9.978;2022-07-23T03:01:49;22.00;99.30
25438;DHT22;13364;49.084;9.978;2022-07-23T03:04:18;22.00;99.90
25438;DHT22;13364;49.084;9.978;2022-07-23T03:06:45;22.00;99.90
25438;DHT22;13364;49.084;9.978;2022-07-23T03:09:12;22.00;99.90
25438;DHT22;13364;49.084;9.978;2022-07-23T03:11:39;21.90;99.90
25438;DHT22;13364;49.084;9.978;2022-07-23T03:14:06;21.90;99.90
25438;DHT22;13364;49.084;9.978;2022-07-23T03:16:35;21.80;99.90
25438;DHT22;13364;49.084;9.978;2022-07-23T03:19:03;21.80;99.90
25438;DHT22;13364;49.084;9.978;2022-07-23T03:21:32;21.70;99.90
25438;DHT22;13364;49.084;9.978;2022-07-23T03:23:59;21.70;99.90
25438;DHT22;13364;49.084;9.978;2022-07-23T03:26:28;21.60;99.90
25438;DHT22;13364;49.084;9.978;2022-07-23T03:28:55;21.60;99.90
25438;DHT22;13364;49.084;9.978;2022-07-23T03:31:22;21.60;99.90
25438;DHT22;13364;49.084;9.978;2022-07-23T03:33:50;21.50;99.90
25438;DHT22;13364;49.084;9.978;2022-07-23T03:36:17;21.50;99.90
25438;DHT22;13364;49.084;9.978;2022-07-23T03:38:47;21.40;99.90
25438;DHT22;13364;49.084;9.978;2022-07-23T03:41:14;21.40;99.90
25438;DHT22;13364;49.084;9.978;2022-07-23T03:43:41;21.40;99.90
25438;DHT22;13364;49.084;9.978;2022-07-23T03:46:10;21.30;99.90
25438;DHT22;13364;49.084;9.978;2022-07-23T03:48:38;21.30;99.90
25438;DHT22;13364;49.084;9.978;2022-07-23T03:51:05;21.30;99.90
25438;DHT22;13364;49.084;9.978;2022-07-23T03:53:32;21.20;99.90
25438;DHT22;13364;49.084;9.978;2022-07-23T03:56:00;21.20;99.90
25438;DHT22;13364;49.084;9.978;2022-07-23T03:58:29;21.20;99.90
25438;DHT22;13364;49.084;9.978;2022-07-23T04:00:56;21.10;99.90
25438;DHT22;13364;49.084;9.978;2022-07-23T04:03:24;21.10;99.90
25438;DHT22;13364;49.084;9.978;2022-07-23T04:05:52;21.10;99.90
25438;DHT22;13364;49.084;9.978;2022-07-23T04:08:20;21.10;99.90
25438;DHT22;13364;49.084;9.978;2022-07-23T04:10:50;21.10;99.90
25438;DHT22;13364;49.084;9.978;2022-07-23T04:13:18;21.00;99.90
25438;DHT22;13364;49.084;9.978;2022-07-23T04:15:46;21.00;99.90
25438;DHT22;13364;49.084;9.978;2022-07-23T04:18:15;21.00;99.90
25438;DHT22;13364;49.084;9.978;2022-07-23T04:20:53;21.00;99.90
25438;DHT22;13364;49.084;9.978;2022-07-23T04:23:21;20.90;99.90
25438;DHT22;13364;49.084;9.978;2022-07-23T04:25:52;20.90;99.90
25438;DHT22;13364;49.084;9.978;2022-07-23T04:28:19;20.90;99.90
25438;DHT22;13364;49.084;9.978;2022-07-23T04:30:46;20.90;99.90
25438;DHT22;13364;49.084;9.978;2022-07-23T04:33:15;20.90;99.90
25438;DHT22;13364;49.084;9.978;2022-07-23T04:35:43;20.90;99.90
25438;DHT22;13364;49.084;9.978;2022-07-23T04:38:18;20.90;99.90
25438;DHT22;13364;49.084;9.978;2022-07-23T04:40:47;20.80;99.90
25438;DHT22;13364;49.084;9.978;2022-07-23T04:43:14;20.80;99.90
25438;DHT22;13364;49.084;9.978;2022-07-23T04:45:46;20.80;99.90
25438;DHT22;13364;49.084;9.978;2022-07-23T04:48:14;20.70;99.90
25438;DHT22;13364;49.084;9.978;2022-07-23T04:50:43;20.80;99.90
25438;DHT22;13364;49.084;9.978;2022-07-23T04:53:37;20.80;99.90
25438;DHT22;13364;49.084;9.978;2022-07-23T04:56:05;20.90;99.90
25438;DHT22;13364;49.084;9.978;2022-07-23T04:58:32;20.90;99.90
25438;DHT22;13364;49.084;9.978;2022-07-23T05:00:59;20.90;99.90
25438;DHT22;13364;49.084;9.978;2022-07-23T05:03:29;20.90;99.90
25438;DHT22;13364;49.084;9.978;2022-07-23T05:05:56;20.90;99.90
25438;DHT22;13364;49.084;9.978;2022-07-23T05:08:23;20.90;99.90
25438;DHT22;13364;49.084;9.978;2022-07-23T05:10:54;21.00;99.90
25438;DHT22;13364;49.084;9.978;2022-07-23T05:13:21;21.00;99.90
25438;DHT22;13364;49.084;9.978;2022-07-23T05:15:51;21.00;99.90
25438;DHT22;13364;49.084;9.978;2022-07-23T05:18:18;21.00;99.90
25438;DHT22;13364;49.084;9.978;2022-07-23T05:20:46;21.10;99.90
25438;DHT22;13364;49.084;9.978;2022-07-23T05:23:16;21.20;99.90
25438;DHT22;13364;49.084;9.978;2022-07-23T05:25:44;21.20;99.90
25438;DHT22;13364;49.084;9.978;2022-07-23T05:28:11;21.30;99.90
25438;DHT22;13364;49.084;9.978;2022-07-23T05:30:38;21.30;99.90
25438;DHT22;13364;49.084;9.978;2022-07-23T05:33:08;21.40;99.90
25438;DHT22;13364;49.084;9.978;2022-07-23T05:35:36;21.40;99.90
25438;DHT22;13364;49.084;9.978;2022-07-23T05:38:21;21.50;99.90
25438;DHT22;13364;49.084;9.978;2022-07-23T05:40:48;21.50;99.90
25438;DHT22;13364;49.084;9.978;2022-07-23T05:43:17;21.60;99.90
25438;DHT22;13364;49.084;9.978;2022-07-23T05:45:44;21.60;99.90
25438;DHT22;13364;49.084;9.978;2022-07-23T05:48:11;21.70;99.90
25438;DHT22;13364;49.084;9.978;2022-07-23T05:50:48;21.80;99.90
25438;DHT22;13364;49.084;9.978;2022-07-23T05:53:27;21.80;99.90
25438;DHT22;13364;49.084;9.978;2022-07-23T05:56:00;21.90;99.90
25438;DHT22;13364;49.084;9.978;2022-07-23T05:58:28;22.00;99.90
25438;DHT22;13364;49.084;9.978;2022-07-23T06:00:56;22.10;99.90
25438;DHT22;13364;49.084;9.978;2022-07-23T06:03:23;22.20;99.90
25438;DHT22;13364;49.084;9.978;2022-07-23T06:05:50;22.30;99.90
25438;DHT22;13364;49.084;9.978;2022-07-23T06:08:17;22.40;99.90
25438;DHT22;13364;49.084;9.978;2022-07-23T06:10:44;22.50;99.90
25438;DHT22;13364;49.084;9.978;2022-07-23T06:13:12;22.60;99.90
25438;DHT22;13364;49.084;9.978;2022-07-23T06:15:39;22.70;99.90
25438;DHT22;13364;49.084;9.978;2022-07-23T06:18:06;22.80;99.90
25438;DHT22;13364;49.084;9.978;2022-07-23T06:20:33;22.80;99.90
25438;DHT22;13364;49.084;9.978;2022-07-23T06:23:00;22.80;99.90
25438;DHT22;13364;49.084;9.978;2022-07-23T06:25:28;22.80;99.90
25438;DHT22;13364;49.084;9.978;2022-07-23T06:27:55;22.80;99.90
25438;DHT22;13364;49.084;9.978;2022-07-23T06:30:22;22.80;99.90
25438;DHT22;13364;49.084;9.978;2022-07-23T06:32:50;22.90;99.90
25438;DHT22;13364;49.084;9.978;2022-07-23T06:35:17;23.00;99.90
25438;DHT22;13364;49.084;9.978;2022-07-23T06:37:46;23.00;99.90
25438;DHT22;13364;49.084;9.978;2022-07-23T06:40:14;23.00;99.90
25438;DHT22;13364;49.084;9.978;2022-07-23T06:42:42;23.00;99.90
25438;DHT22;13364;49.084;9.978;2022-07-23T06:45:15;23.00;99.90
25438;DHT22;13364;49.084;9.978;2022-07-23T06:47:42;22.90;99.90
25438;DHT22;13364;49.084;9.978;2022-07-23T06:50:10;22.90;99.90
25438;DHT22;13364;49.084;9.978;2022-07-23T06:52:37;22.80;99.90
25438;DHT22;13364;49.084;9.978;2022-07-23T06:55:09;22.60;99.90
25438;DHT22;13364;49.084;9.978;2022-07-23T06:57:37;22.60;99.90
25438;DHT22;13364;49.084;9.978;2022-07-23T07:00:06;22.50;99.90
25438;DHT22;13364;49.084;9.978;2022-07-23T07:02:33;22.50;99.90
25438;DHT22;13364;49.084;9.978;2022-07-23T07:05:02;22.50;99.90
25438;DHT22;13364;49.084;9.978;2022-07-23T07:07:33;22.50;99.90
25438;DHT22;13364;49.084;9.978;2022-07-23T07:10:00;22.50;99.90
25438;DHT22;13364;49.084;9.978;2022-07-23T07:12:28;22.50;99.90
25438;DHT22;13364;49.084;9.978;2022-07-23T07:14:55;22.60;99.90
25438;DHT22;13364;49.084;9.978;2022-07-23T07:17:23;22.60;99.90
25438;DHT22;13364;49.084;9.978;2022-07-23T07:19:50;22.60;99.90
25438;DHT22;13364;49.084;9.978;2022-07-23T07:22:17;22.60;99.90
25438;DHT22;13364;49.084;9.978;2022-07-23T07:24:44;22.70;99.90
25438;DHT22;13364;49.084;9.978;2022-07-23T07:27:11;22.70;99.90
25438;DHT22;13364;49.084;9.978;2022-07-23T07:29:38;22.70;99.90
25438;DHT22;13364;49.084;9.978;2022-07-23T07:32:06;22.80;99.90
25438;DHT22;13364;49.084;9.978;2022-07-23T07:34:33;22.80;99.90
25438;DHT22;13364;49.084;9.978;2022-07-23T07:37:00;22.80;99.90
25438;DHT22;13364;49.084;9.978;2022-07-23T07:39:27;22.80;99.90
25438;DHT22;13364;49.084;9.978;2022-07-23T07:41:54;22.70;99.90
25438;DHT22;13364;49.084;9.978;2022-07-23T07:44:21;22.70;99.90
25438;DHT22;13364;49.084;9.978;2022-07-23T07:46:48;22.70;99.90
25438;DHT22;13364;49.084;9.978;2022-07-23T07:49:15;22.70;99.90
25438;DHT22;13364;49.084;9.978;2022-07-23T07:51:48;22.70;99.90
25438;DHT22;13364;49.084;9.978;2022-07-23T07:54:15;22.70;99.90
25438;DHT22;13364;49.084;9.978;2022-07-23T07:56:42;22.60;99.90
25438;DHT22;13364;49.084;9.978;2022-07-23T07:59:10;22.50;99.90
25438;DHT22;13364;49.084;9.978;2022-07-23T08:01:38;22.40;99.90
25438;DHT22;13364;49.084;9.978;2022-07-23T08:04:05;22.30;99.90
25438;DHT22;13364;49.084;9.978;2022-07-23T08:10:57;22.10;99.90
25438;DHT22;13364;49.084;9.978;2022-07-23T08:13:24;22.00;99.90
25438;DHT22;13364;49.084;9.978;2022-07-23T08:15:51;21.90;99.90
25438;DHT22;13364;49.084;9.978;2022-07-23T08:18:20;21.70;99.90
25438;DHT22;13364;49.084;9.978;2022-07-23T08:20:47;21.60;99.90
25438;DHT22;13364;49.084;9.978;2022-07-23T08:23:14;21.40;99.90
25438;DHT22;13364;49.084;9.978;2022-07-23T08:25:46;21.20;99.90
25438;DHT22;13364;49.084;9.978;2022-07-23T08:28:14;21.00;99.90
25438;DHT22;13364;49.084;9.978;2022-07-23T08:30:43;20.80;99.90
25438;DHT22;13364;49.084;9.978;2022-07-23T08:36:30;20.70;99.90
25438;DHT22;13364;49.084;9.978;2022-07-23T08:38:59;20.60;99.90
25438;DHT22;13364;49.084;9.978;2022-07-23T08:41:26;20.60;99.90
25438;DHT22;13364;49.084;9.978;2022-07-23T08:43:53;20.60;99.90
25438;DHT22;13364;49.084;9.978;2022-07-23T08:46:22;20.50;99.90
25438;DHT22;13364;49.084;9.978;2022-07-23T08:48:50;20.40;99.90
25438;DHT22;13364;49.084;9.978;2022-07-23T08:51:17;20.50;99.90
25438;DHT22;13364;49.084;9.978;2022-07-23T08:53:45;20.50;99.90
25438;DHT22;13364;49.084;9.978;2022-07-23T08:56:13;20.60;99.90
25438;DHT22;13364;49.084;9.978;2022-07-23T08:58:40;20.70;99.90
25438;DHT22;13364;49.084;9.978;2022-07-23T09:01:07;20.70;99.90
25438;DHT22;13364;49.084;9.978;2022-07-23T09:03:36;20.80;99.90
25438;DHT22;13364;49.084;9.978;2022-07-23T09:06:05;20.90;99.90
25438;DHT22;13364;49.084;9.978;2022-07-23T09:08:38;21.00;99.90
25438;DHT22;13364;49.084;9.978;2022-07-23T09:11:10;21.10;99.90
25438;DHT22;13364;49.084;9.978;2022-07-23T09:13:45;21.20;99.90
25438;DHT22;13364;49.084;9.978;2022-07-23T09:16:15;21.30;99.90
25438;DHT22;13364;49.084;9.978;2022-07-23T09:24:07;21.90;99.90
25438;DHT22;13364;49.084;9.978;2022-07-23T09:26:36;22.00;99.90
25438;DHT22;13364;49.084;9.978;2022-07-23T09:34:15;22.20;99.90
25438;DHT22;13364;49.084;9.978;2022-07-23T09:36:42;22.30;99.90
25438;DHT22;13364;49.084;9.978;2022-07-23T09:39:12;22.30;99.90
25438;DHT22;13364;49.084;9.978;2022-07-23T09:41:43;22.40;99.90
25438;DHT22;13364;49.084;9.978;2022-07-23T09:44:16;22.40;99.90
25438;DHT22;13364;49.084;9.978;2022-07-23T09:46:47;22.40;99.90
25438;DHT22;13364;49.084;9.978;2022-07-23T09:49:20;22.30;99.90
25438;DHT22;13364;49.084;9.978;2022-07-23T09:51:56;22.20;99.90
25438;DHT22;13364;49.084;9.978;2022-07-23T09:54:28;22.10;99.90
25438;DHT22;13364;49.084;9.978;2022-07-23T09:56:59;22.00;99.90
25438;DHT22;13364;49.084;9.978;2022-07-23T09:59:29;22.10;99.90
25438;DHT22;13364;49.084;9.978;2022-07-23T10:01:58;22.20;99.90
25438;DHT22;13364;49.084;9.978;2022-07-23T10:04:29;22.40;99.90
25438;DHT22;13364;49.084;9.978;2022-07-23T10:07:17;22.70;99.90
25438;DHT22;13364;49.084;9.978;2022-07-23T10:10:08;23.10;99.90
25438;DHT22;13364;49.084;9.978;2022-07-23T10:13:09;23.50;99.90
25438;DHT22;13364;49.084;9.978;2022-07-23T10:15:55;23.90;99.90
25438;DHT22;13364;49.084;9.978;2022-07-23T10:18:22;24.30;99.90
25438;DHT22;13364;49.084;9.978;2022-07-23T10:20:50;24.70;99.90
25438;DHT22;13364;49.084;9.978;2022-07-23T10:27:30;25.50;99.90
25438;DHT22;13364;49.084;9.978;2022-07-23T10:30:17;25.80;99.90
25438;DHT22;13364;49.084;9.978;2022-07-23T10:35:42;26.00;99.90
25438;DHT22;13364;49.084;9.978;2022-07-23T10:38:21;26.20;99.90
25438;DHT22;13364;49.084;9.978;2022-07-23T10:40:57;26.50;99.90
25438;DHT22;13364;49.084;9.978;2022-07-23T10:43:25;26.60;99.90
25438;DHT22;13364;49.084;9.978;2022-07-23T10:45:54;26.70;99.90
25438;DHT22;13364;49.084;9.978;2022-07-23T10:48:24;26.90;99.90
25438;DHT22;13364;49.084;9.978;2022-07-23T10:51:09;27.10;99.90
25438;DHT22;13364;49.084;9.978;2022-07-23T10:59:05;27.70;99.90
25438;DHT22;13364;49.084;9.978;2022-07-23T11:01:39;27.80;99.40
25438;DHT22;13364;49.084;9.978;2022-07-23T11:04:18;27.80;98.70
25438;DHT22;13364;49.084;9.978;2022-07-23T11:17:25;27.10;97.50
25438;DHT22;13364;49.084;9.978;2022-07-23T11:22:36;27.10;99.90
25438;DHT22;13364;49.084;9.978;2022-07-23T11:25:03;27.10;99.90
25438;DHT22;13364;49.084;9.978;2022-07-23T11:27:45;27.20;99.90
25438;DHT22;13364;49.084;9.978;2022-07-23T11:35:47;27.60;97.90
25438;DHT22;13364;49.084;9.978;2022-07-23T11:38:21;27.80;97.40
25438;DHT22;13364;49.084;9.978;2022-07-23T11:40:54;27.90;97.40
25438;DHT22;13364;49.084;9.978;2022-07-23T11:43:23;28.10;94.70
25438;DHT22;13364;49.084;9.978;2022-07-23T11:45:57;28.20;95.40
25438;DHT22;13364;49.084;9.978;2022-07-23T11:52:10;28.40;92.60
25438;DHT22;13364;49.084;9.978;2022-07-23T11:54:50;28.60;92.20
25438;DHT22;13364;49.084;9.978;2022-07-23T11:57:19;28.80;91.20
25438;DHT22;13364;49.084;9.978;2022-07-23T11:59:51;29.10;93.00
25438;DHT22;13364;49.084;9.978;2022-07-23T12:02:20;29.10;89.20
25438;DHT22;13364;49.084;9.978;2022-07-23T12:04:49;29.20;90.00
25438;DHT22;13364;49.084;9.978;2022-07-23T12:07:33;29.20;89.90
25438;DHT22;13364;49.084;9.978;2022-07-23T12:12:40;29.20;88.50
25438;DHT22;13364;49.084;9.978;2022-07-23T12:15:08;29.20;89.20
25438;DHT22;13364;49.084;9.978;2022-07-23T12:17:37;29.20;88.00
25438;DHT22;13364;49.084;9.978;2022-07-23T12:20:06;29.20;88.50
25438;DHT22;13364;49.084;9.978;2022-07-23T12:22:39;29.20;87.90
25438;DHT22;13364;49.084;9.978;2022-07-23T12:25:11;29.20;88.00
25438;DHT22;13364;49.084;9.978;2022-07-23T12:27:39;29.10;83.90
25438;DHT22;13364;49.084;9.978;2022-07-23T12:30:27;29.00;86.10
25438;DHT22;13364;49.084;9.978;2022-07-23T12:33:00;29.00;84.00
25438;DHT22;13364;49.084;9.978;2022-07-23T12:35:34;29.10;84.00
25438;DHT22;13364;49.084;9.978;2022-07-23T12:38:04;29.00;81.50
25438;DHT22;13364;49.084;9.978;2022-07-23T12:40:40;28.90;82.20
25438;DHT22;13364;49.084;9.978;2022-07-23T12:43:11;28.80;80.70
25438;DHT22;13364;49.084;9.978;2022-07-23T12:45:46;28.70;81.80
25438;DHT22;13364;49.084;9.978;2022-07-23T12:51:23;28.70;80.80
25438;DHT22;13364;49.084;9.978;2022-07-23T12:53:55;28.60;81.30
25438;DHT22;13364;49.084;9.978;2022-07-23T12:56:53;28.70;80.80
25438;DHT22;13364;49.084;9.978;2022-07-23T12:59:39;28.70;80.20
25438;DHT22;13364;49.084;9.978;2022-07-23T13:02:08;28.90;80.50
25438;DHT22;13364;49.084;9.978;2022-07-23T13:04:36;28.90;79.80
25438;DHT22;13364;49.084;9.978;2022-07-23T13:07:06;28.90;79.50
25438;DHT22;13364;49.084;9.978;2022-07-23T13:09:34;28.80;78.30
25438;DHT22;13364;49.084;9.978;2022-07-23T13:12:09;28.60;79.50
25438;DHT22;13364;49.084;9.978;2022-07-23T13:14:40;28.60;80.10
25438;DHT22;13364;49.084;9.978;2022-07-23T13:17:28;28.60;82.50
25438;DHT22;13364;49.084;9.978;2022-07-23T13:19:56;28.70;79.90
25438;DHT22;13364;49.084;9.978;2022-07-23T13:22:43;28.70;80.90
25438;DHT22;13364;49.084;9.978;2022-07-23T13:25:10;28.70;80.80
25438;DHT22;13364;49.084;9.978;2022-07-23T13:27:37;28.70;78.90
25438;DHT22;13364;49.084;9.978;2022-07-23T13:30:07;28.70;82.60
25438;DHT22;13364;49.084;9.978;2022-07-23T13:32:38;28.70;83.60
25438;DHT22;13364;49.084;9.978;2022-07-23T13:35:06;28.80;82.40
25438;DHT22;13364;49.084;9.978;2022-07-23T13:37:37;28.80;83.70
25438;DHT22;13364;49.084;9.978;2022-07-23T13:40:05;29.00;82.30
25438;DHT22;13364;49.084;9.978;2022-07-23T13:42:52;29.00;82.40
25438;DHT22;13364;49.084;9.978;2022-07-23T13:45:20;28.90;80.80
25438;DHT22;13364;49.084;9.978;2022-07-23T13:47:47;28.80;83.60
25438;DHT22;13364;49.084;9.978;2022-07-23T13:50:14;28.80;82.40
25438;DHT22;13364;49.084;9.978;2022-07-23T13:52:47;28.80;84.00
25438;DHT22;13364;49.084;9.978;2022-07-23T13:55:14;28.80;82.90
25438;DHT22;13364;49.084;9.978;2022-07-23T13:57:44;28.90;83.00
25438;DHT22;13364;49.084;9.978;2022-07-23T14:00:12;29.00;84.00
25438;DHT22;13364;49.084;9.978;2022-07-23T14:03:02;29.10;86.50
25438;DHT22;13364;49.084;9.978;2022-07-23T14:05:29;29.20;83.80
25438;DHT22;13364;49.084;9.978;2022-07-23T14:07:57;29.20;84.00
25438;DHT22;13364;49.084;9.978;2022-07-23T14:10:24;29.30;82.40
25438;DHT22;13364;49.084;9.978;2022-07-23T14:12:52;29.20;83.70
25438;DHT22;13364;49.084;9.978;2022-07-23T14:15:24;29.30;83.70
25438;DHT22;13364;49.084;9.978;2022-07-23T14:17:52;29.40;83.80
25438;DHT22;13364;49.084;9.978;2022-07-23T14:20:22;29.30;83.30
25438;DHT22;13364;49.084;9.978;2022-07-23T14:22:51;29.30;83.60
25438;DHT22;13364;49.084;9.978;2022-07-23T14:25:18;29.30;82.80
25438;DHT22;13364;49.084;9.978;2022-07-23T14:27:45;29.20;83.30
25438;DHT22;13364;49.084;9.978;2022-07-23T14:30:14;29.20;83.80
25438;DHT22;13364;49.084;9.978;2022-07-23T14:32:41;29.30;84.70
25438;DHT22;13364;49.084;9.978;2022-07-23T14:35:09;29.50;83.60
25438;DHT22;13364;49.084;9.978;2022-07-23T14:37:39;29.60;78.00
25438;DHT22;13364;49.084;9.978;2022-07-23T14:40:06;29.70;77.10
25438;DHT22;13364;49.084;9.978;2022-07-23T14:42:34;29.60;76.40
25438;DHT22;13364;49.084;9.978;2022-07-23T14:45:02;29.60;76.30
25438;DHT22;13364;49.084;9.978;2022-07-23T14:47:36;29.60;76.90
25438;DHT22;13364;49.084;9.978;2022-07-23T14:50:06;29.60;74.70
25438;DHT22;13364;49.084;9.978;2022-07-23T14:52:33;29.60;73.20
25438;DHT22;13364;49.084;9.978;2022-07-23T14:55:00;29.60;73.50
25438;DHT22;13364;49.084;9.978;2022-07-23T14:57:29;29.60;73.10
25438;DHT22;13364;49.084;9.978;2022-07-23T14:59:57;29.60;73.20
25438;DHT22;13364;49.084;9.978;2022-07-23T15:02:24;29.70;72.20
25438;DHT22;13364;49.084;9.978;2022-07-23T15:04:51;29.80;72.60
25438;DHT22;13364;49.084;9.978;2022-07-23T15:07:18;29.90;71.10
25438;DHT22;13364;49.084;9.978;2022-07-23T15:09:46;30.00;71.70
25438;DHT22;13364;49.084;9.978;2022-07-23T15:12:14;29.20;68.90
25438;DHT22;13364;49.084;9.978;2022-07-23T15:14:41;30.20;68.80
25438;DHT22;13364;49.084;9.978;2022-07-23T15:17:10;30.40;68.70
25438;DHT22;13364;49.084;9.978;2022-07-23T15:19:40;30.40;69.30
25438;DHT22;13364;49.084;9.978;2022-07-23T15:22:07;30.40;69.90
25438;DHT22;13364;49.084;9.978;2022-07-23T15:24:35;30.40;70.70
25438;DHT22;13364;49.084;9.978;2022-07-23T15:27:02;30.40;69.90
25438;DHT22;13364;49.084;9.978;2022-07-23T15:29:30;30.40;69.60
25438;DHT22;13364;49.084;9.978;2022-07-23T15:31:57;30.40;70.40
25438;DHT22;13364;49.084;9.978;2022-07-23T15:34:26;30.20;70.60
25438;DHT22;13364;49.084;9.978;2022-07-23T15:36:54;30.10;72.00
25438;DHT22;13364;49.084;9.978;2022-07-23T15:39:21;30.00;72.00
25438;DHT22;13364;49.084;9.978;2022-07-23T15:41:48;29.90;72.20
25438;DHT22;13364;49.084;9.978;2022-07-23T15:44:16;29.90;72.40
25438;DHT22;13364;49.084;9.978;2022-07-23T15:46:56;29.90;72.00
25438;DHT22;13364;49.084;9.978;2022-07-23T15:49:25;29.90;71.80
25438;DHT22;13364;49.084;9.978;2022-07-23T15:51:53;29.90;71.00
25438;DHT22;13364;49.084;9.978;2022-07-23T15:54:22;29.90;72.10
25438;DHT22;13364;49.084;9.978;2022-07-23T15:56:49;29.90;74.30
25438;DHT22;13364;49.084;9.978;2022-07-23T15:59:17;29.90;71.90
25438;DHT22;13364;49.084;9.978;2022-07-23T16:01:44;29.80;71.60
25438;DHT22;13364;49.084;9.978;2022-07-23T16:04:11;29.70;70.60
25438;DHT22;13364;49.084;9.978;2022-07-23T16:06:40;29.50;72.00
25438;DHT22;13364;49.084;9.978;2022-07-23T16:09:08;29.50;71.60
25438;DHT22;13364;49.084;9.978;2022-07-23T16:11:44;29.40;71.50
25438;DHT22;13364;49.084;9.978;2022-07-23T16:14:12;29.20;71.50
25438;DHT22;13364;49.084;9.978;2022-07-23T16:16:40;29.00;72.00
25438;DHT22;13364;49.084;9.978;2022-07-23T16:19:08;29.00;72.60
25438;DHT22;13364;49.084;9.978;2022-07-23T16:21:35;29.00;73.00
25438;DHT22;13364;49.084;9.978;2022-07-23T16:24:02;29.00;73.00
25438;DHT22;13364;49.084;9.978;2022-07-23T16:26:31;29.00;73.40
25438;DHT22;13364;49.084;9.978;2022-07-23T16:28:58;29.00;74.20
25438;DHT22;13364;49.084;9.978;2022-07-23T16:31:26;29.00;75.50
25438;DHT22;13364;49.084;9.978;2022-07-23T16:33:53;28.90;76.40
25438;DHT22;13364;49.084;9.978;2022-07-23T16:36:22;28.90;76.80
25438;DHT22;13364;49.084;9.978;2022-07-23T16:38:50;28.80;77.30
25438;DHT22;13364;49.084;9.978;2022-07-23T16:41:18;28.80;77.20
25438;DHT22;13364;49.084;9.978;2022-07-23T16:43:46;28.70;78.50
25438;DHT22;13364;49.084;9.978;2022-07-23T16:46:15;28.80;77.50
25438;DHT22;13364;49.084;9.978;2022-07-23T16:48:42;28.80;77.30